Time;durP1;ratioP1;P1;durP2;ratioP2;P2;SDS_P1;SDS_P2;PMS_P1;PMS_P2;Temp;Humidity;BMP_temperature;BMP_pressure;BME280_temperature;BME280_humidity;BME280_pressure;Samples;Min_cycle;Max_cycle;Signal;HPM_P1;HPM_P2
2021/11/22 00:02:19;;;;;;;13.48;5.75;;;2.50;99.90;;;;;;5022532;28;20064;-86
2021/11/22 00:04:44;;;;;;;16.40;6.43;;;2.50;99.90;;;;;;5009833;28;22453;-87
2021/11/22 00:07:11;;;;;;;17.85;6.68;;;2.50;99.90;;;;;;5012273;28;20030;-87
2021/11/22 00:09:37;;;;;;;15.68;6.25;;;2.50;99.90;;;;;;5011460;28;20036;-86
2021/11/22 00:12:03;;;;;;;14.43;6.68;;;2.40;99.90;;;;;;5011844;28;20509;-87
2021/11/22 00:14:29;;;;;;;20.45;8.30;;;2.40;99.90;;;;;;5008117;28;20071;-86
2021/11/22 00:16:54;;;;;;;14.75;6.95;;;2.40;99.90;;;;;;5016851;28;20474;-86
2021/11/22 00:19:20;;;;;;;12.63;6.82;;;2.40;99.90;;;;;;5011621;28;20490;-87
2021/11/22 00:21:46;;;;;;;16.92;6.95;;;2.40;99.90;;;;;;5023800;28;21926;-87
2021/11/22 00:24:11;;;;;;;14.00;5.97;;;2.40;99.90;;;;;;5012036;28;20405;-87
2021/11/22 00:26:37;;;;;;;12.40;5.82;;;2.30;99.90;;;;;;5026177;28;20034;-86
2021/11/22 00:29:02;;;;;;;12.38;6.93;;;2.30;99.90;;;;;;5012129;28;20038;-87
2021/11/22 00:31:28;;;;;;;13.30;5.90;;;2.20;99.90;;;;;;5010792;28;20469;-86
2021/11/22 00:33:54;;;;;;;12.27;6.53;;;2.20;99.90;;;;;;5012323;28;20438;-86
2021/11/22 00:36:21;;;;;;;16.00;6.05;;;2.20;99.90;;;;;;5027422;28;20412;-85
2021/11/22 00:38:49;;;;;;;20.85;6.18;;;2.20;99.90;;;;;;5012123;28;20033;-85
2021/11/22 00:41:15;;;;;;;16.65;6.70;;;2.30;99.90;;;;;;5014971;28;20037;-87
2021/11/22 00:43:40;;;;;;;22.98;7.38;;;2.20;99.90;;;;;;5007469;28;20029;-86
2021/11/22 00:46:07;;;;;;;18.52;6.68;;;2.20;99.90;;;;;;5010495;28;20063;-86
2021/11/22 00:48:34;;;;;;;29.67;6.90;;;2.30;99.90;;;;;;5009651;28;20469;-86
2021/11/22 00:51:00;;;;;;;21.45;8.20;;;2.40;99.90;;;;;;5028055;28;20268;-86
2021/11/22 00:53:29;;;;;;;26.08;6.28;;;2.50;99.90;;;;;;5012169;28;20036;-86
2021/11/22 00:55:55;;;;;;;19.85;6.35;;;2.60;99.90;;;;;;4985166;28;20029;-87
2021/11/22 00:58:21;;;;;;;24.02;8.05;;;2.60;99.90;;;;;;5028756;28;20024;-87
2021/11/22 01:00:47;;;;;;;18.58;5.82;;;2.70;99.90;;;;;;5013656;28;20034;-87
2021/11/22 01:03:12;;;;;;;17.95;7.38;;;2.70;99.90;;;;;;5001442;28;20033;-87
2021/11/22 01:05:38;;;;;;;21.95;7.03;;;2.90;99.90;;;;;;5011096;28;20247;-87
2021/11/22 01:08:04;;;;;;;12.95;6.10;;;2.90;99.90;;;;;;5011906;28;20018;-86
2021/11/22 01:10:31;;;;;;;16.92;7.35;;;3.00;99.90;;;;;;5008706;28;20057;-86
2021/11/22 01:12:56;;;;;;;21.95;8.82;;;3.00;99.90;;;;;;5027064;28;20036;-86
2021/11/22 01:15:22;;;;;;;15.38;7.57;;;3.00;99.90;;;;;;5014486;28;20022;-87
2021/11/22 01:17:50;;;;;;;15.00;8.00;;;3.00;99.90;;;;;;5009133;28;20672;-87
2021/11/22 01:20:17;;;;;;;22.02;9.63;;;3.20;99.90;;;;;;5018269;28;20037;-86
2021/11/22 01:22:43;;;;;;;37.13;11.07;;;3.20;99.90;;;;;;5023587;28;20030;-86
2021/11/22 01:25:11;;;;;;;28.17;10.60;;;3.20;99.90;;;;;;5011337;28;20041;-86
2021/11/22 01:27:37;;;;;;;22.48;11.18;;;3.20;99.90;;;;;;5016757;28;20030;-87
2021/11/22 01:30:09;;;;;;;23.63;11.48;;;3.30;99.90;;;;;;5011504;28;20088;-87
2021/11/22 01:32:35;;;;;;;35.85;12.27;;;3.30;99.90;;;;;;4994560;28;20549;-86
2021/11/22 01:35:01;;;;;;;30.25;13.93;;;3.30;99.90;;;;;;5009616;28;20029;-87
2021/11/22 01:37:26;;;;;;;28.25;12.43;;;3.50;99.90;;;;;;5025091;28;20104;-87
2021/11/22 01:39:52;;;;;;;29.58;12.68;;;3.50;99.90;;;;;;5016996;28;20036;-85
2021/11/22 01:42:17;;;;;;;37.22;13.77;;;3.50;99.90;;;;;;5003177;28;20037;-86
2021/11/22 01:44:43;;;;;;;35.28;14.02;;;3.60;99.90;;;;;;5024927;28;20025;-86
2021/11/22 01:47:09;;;;;;;38.80;13.60;;;3.70;99.90;;;;;;4995217;28;20041;-86
2021/11/22 01:49:35;;;;;;;34.17;14.45;;;3.70;99.90;;;;;;5010119;28;20112;-85
2021/11/22 01:52:01;;;;;;;35.42;15.48;;;3.70;99.90;;;;;;5010809;28;20018;-86
2021/11/22 01:54:26;;;;;;;42.83;16.35;;;3.70;99.90;;;;;;5000805;28;20033;-87
2021/11/22 01:56:52;;;;;;;38.03;15.88;;;3.80;99.90;;;;;;5020817;28;20040;-87
2021/11/22 01:59:18;;;;;;;40.13;16.00;;;3.80;99.90;;;;;;5030748;28;20047;-86
2021/11/22 02:01:44;;;;;;;41.97;14.68;;;3.90;99.90;;;;;;5005475;28;20473;-85
2021/11/22 02:04:10;;;;;;;42.78;17.48;;;4.00;99.90;;;;;;5042148;28;20346;-87
2021/11/22 02:06:35;;;;;;;35.38;16.38;;;4.00;99.90;;;;;;5010204;28;20033;-85
2021/11/22 02:09:01;;;;;;;58.60;21.48;;;4.10;99.90;;;;;;5010525;28;20516;-85
2021/11/22 02:11:27;;;;;;;47.90;20.58;;;4.10;99.90;;;;;;5025023;28;20037;-86
2021/11/22 02:13:52;;;;;;;45.53;17.80;;;4.10;99.90;;;;;;5038686;28;20037;-86
2021/11/22 02:16:18;;;;;;;48.40;19.33;;;4.10;99.90;;;;;;5010076;28;20139;-86
2021/11/22 02:18:44;;;;;;;53.10;19.63;;;4.20;99.90;;;;;;5014360;28;20042;-86
2021/11/22 02:21:10;;;;;;;54.75;20.38;;;4.20;99.90;;;;;;5022845;28;20030;-86
2021/11/22 02:23:36;;;;;;;52.65;18.85;;;4.30;99.90;;;;;;5010527;28;20129;-86
2021/11/22 02:26:02;;;;;;;47.40;23.17;;;4.30;99.90;;;;;;5007413;28;20120;-85
2021/11/22 02:28:27;;;;;;;45.90;19.85;;;4.20;99.90;;;;;;5020983;28;20037;-86
2021/11/22 02:30:53;;;;;;;46.67;18.63;;;4.30;99.90;;;;;;5007916;28;20029;-85
2021/11/22 02:33:27;;;;;;;51.33;19.92;;;4.30;99.90;;;;;;5024796;28;20071;-86
2021/11/22 02:35:55;;;;;;;55.88;20.75;;;4.30;99.90;;;;;;5006918;28;20534;-86
2021/11/22 02:38:22;;;;;;;48.28;21.17;;;4.40;99.90;;;;;;5011357;28;20225;-86
2021/11/22 02:40:48;;;;;;;45.38;21.20;;;4.40;99.90;;;;;;5008272;28;20041;-86
2021/11/22 02:43:14;;;;;;;44.85;19.38;;;4.40;99.90;;;;;;5022404;28;20025;-86
2021/11/22 02:45:39;;;;;;;47.15;20.60;;;4.40;99.90;;;;;;5041605;28;20496;-86
2021/11/22 02:48:05;;;;;;;41.63;19.08;;;4.50;99.90;;;;;;5009767;28;20029;-84
2021/11/22 02:50:30;;;;;;;43.05;19.48;;;4.50;99.90;;;;;;5007773;28;20108;-85
2021/11/22 02:52:56;;;;;;;41.90;17.67;;;4.50;99.90;;;;;;5024745;28;20049;-85
2021/11/22 02:55:22;;;;;;;49.45;21.10;;;4.60;99.90;;;;;;5024325;28;20049;-85
2021/11/22 02:57:48;;;;;;;44.13;18.30;;;4.50;99.90;;;;;;5005963;28;20036;-85
2021/11/22 03:00:23;;;;;;;47.42;19.85;;;4.60;99.90;;;;;;5007713;28;20049;-86
2021/11/22 03:02:48;;;;;;;40.70;20.38;;;4.60;99.90;;;;;;5020277;28;20524;-85
2021/11/22 03:05:14;;;;;;;42.67;19.23;;;4.60;99.90;;;;;;5021369;28;20029;-85
2021/11/22 03:07:40;;;;;;;43.45;18.42;;;4.70;99.90;;;;;;4984048;28;20037;-85
2021/11/22 03:10:06;;;;;;;40.28;21.30;;;4.70;99.90;;;;;;5036667;28;20383;-85
2021/11/22 03:12:32;;;;;;;39.60;18.10;;;4.60;99.90;;;;;;5006938;28;20120;-86
2021/11/22 03:14:57;;;;;;;36.35;20.73;;;4.70;99.90;;;;;;5023966;28;20120;-86
2021/11/22 03:17:23;;;;;;;37.55;18.83;;;4.70;99.90;;;;;;5035093;28;20044;-86
2021/11/22 03:19:48;;;;;;;41.60;19.50;;;4.70;99.90;;;;;;5019686;28;20036;-86
2021/11/22 03:22:14;;;;;;;28.38;18.02;;;4.70;99.90;;;;;;5021722;28;20038;-86
2021/11/22 03:24:39;;;;;;;36.67;18.70;;;4.70;99.90;;;;;;5036509;28;20420;-86
2021/11/22 03:27:05;;;;;;;34.75;16.98;;;4.70;99.90;;;;;;5007194;28;20689;-85
2021/11/22 03:29:31;;;;;;;33.35;18.30;;;4.70;99.90;;;;;;5007435;28;20037;-85
2021/11/22 03:31:57;;;;;;;36.33;19.08;;;4.80;99.90;;;;;;4992693;28;20026;-86
2021/11/22 03:34:23;;;;;;;35.85;17.15;;;4.80;99.90;;;;;;4989966;28;20402;-86
2021/11/22 03:36:49;;;;;;;27.50;16.08;;;4.80;99.90;;;;;;5008569;28;20032;-86
2021/11/22 03:39:19;;;;;;;31.42;16.52;;;4.70;99.90;;;;;;5022834;28;20026;-85
2021/11/22 03:41:45;;;;;;;27.88;17.50;;;4.80;99.90;;;;;;5022575;28;20025;-86
2021/11/22 03:44:11;;;;;;;28.38;18.20;;;4.80;99.90;;;;;;5008700;28;20040;-85
2021/11/22 03:46:38;;;;;;;31.50;16.83;;;4.80;99.90;;;;;;5005687;28;20122;-85
2021/11/22 03:49:04;;;;;;;27.35;15.23;;;4.80;99.90;;;;;;5023122;28;20040;-85
2021/11/22 03:51:29;;;;;;;26.70;17.00;;;4.80;99.90;;;;;;5022578;28;20816;-84
2021/11/22 03:53:55;;;;;;;24.52;15.80;;;4.80;99.90;;;;;;5022888;28;20099;-83
2021/11/22 03:56:21;;;;;;;23.00;14.45;;;4.80;99.90;;;;;;5007286;28;20030;-83
2021/11/22 03:58:46;;;;;;;23.65;13.40;;;4.80;99.90;;;;;;5020414;28;20047;-84
2021/11/22 04:01:12;;;;;;;23.33;15.30;;;4.80;99.90;;;;;;5022295;28;20116;-84
2021/11/22 04:03:37;;;;;;;17.45;13.27;;;4.80;99.90;;;;;;5006696;28;20053;-83
2021/11/22 04:06:03;;;;;;;18.35;12.70;;;4.80;99.90;;;;;;5007616;28;20037;-83
2021/11/22 04:08:29;;;;;;;14.77;10.73;;;4.80;99.90;;;;;;5005751;28;20039;-83
2021/11/22 04:10:54;;;;;;;18.08;10.93;;;4.80;99.90;;;;;;5018332;28;20037;-82
2021/11/22 04:13:20;;;;;;;16.05;10.85;;;4.90;99.90;;;;;;5028792;28;20514;-83
2021/11/22 04:15:45;;;;;;;17.13;11.30;;;4.80;99.90;;;;;;5019886;28;20033;-83
2021/11/22 04:18:13;;;;;;;14.55;10.20;;;4.80;99.90;;;;;;5038744;28;20022;-83
2021/11/22 04:20:38;;;;;;;14.48;10.95;;;4.90;99.90;;;;;;5039812;28;20392;-83
2021/11/22 04:23:04;;;;;;;17.45;11.95;;;4.90;99.90;;;;;;5007919;28;20050;-83
2021/11/22 04:25:29;;;;;;;16.05;11.48;;;4.90;99.90;;;;;;5022229;28;20472;-83
2021/11/22 04:27:55;;;;;;;16.45;10.20;;;4.90;99.90;;;;;;5019856;28;20040;-83
2021/11/22 04:30:21;;;;;;;15.50;10.38;;;4.90;99.90;;;;;;5007722;28;20041;-84
2021/11/22 04:32:46;;;;;;;12.48;9.80;;;4.90;99.90;;;;;;5022296;28;20109;-83
2021/11/22 04:35:13;;;;;;;12.52;9.68;;;4.90;99.90;;;;;;5007624;28;20038;-83
2021/11/22 04:37:39;;;;;;;16.95;11.57;;;5.00;99.90;;;;;;5006742;28;20136;-83
2021/11/22 04:40:07;;;;;;;12.93;9.57;;;4.90;99.90;;;;;;4991525;28;20033;-84
2021/11/22 04:42:32;;;;;;;15.00;9.23;;;5.00;99.90;;;;;;5036931;28;20037;-83
2021/11/22 04:44:58;;;;;;;12.55;8.57;;;4.90;99.90;;;;;;5010024;28;20043;-84
2021/11/22 04:47:24;;;;;;;12.02;9.27;;;4.90;99.90;;;;;;5022453;28;20065;-82
2021/11/22 04:49:49;;;;;;;12.18;9.55;;;4.90;99.90;;;;;;5007412;28;20025;-82
2021/11/22 04:52:15;;;;;;;11.55;8.85;;;4.90;99.90;;;;;;5007390;28;20041;-82
2021/11/22 04:54:41;;;;;;;14.27;9.82;;;4.90;99.90;;;;;;5006313;28;20038;-82
2021/11/22 04:57:07;;;;;;;13.65;8.80;;;4.90;99.90;;;;;;4994623;28;20346;-82
2021/11/22 04:59:32;;;;;;;13.27;10.38;;;4.80;99.90;;;;;;4988496;28;20044;-82
2021/11/22 05:01:58;;;;;;;12.48;9.38;;;4.80;99.90;;;;;;5023144;28;20030;-82
2021/11/22 05:04:23;;;;;;;13.82;9.60;;;4.80;99.90;;;;;;5008991;28;20504;-82
2021/11/22 05:06:49;;;;;;;13.60;10.30;;;4.70;99.90;;;;;;5024644;28;20041;-84
2021/11/22 05:09:15;;;;;;;15.48;11.05;;;4.70;99.90;;;;;;5010023;28;20079;-82
2021/11/22 05:11:42;;;;;;;13.18;10.48;;;4.70;99.90;;;;;;5008757;28;20477;-83
2021/11/22 05:14:10;;;;;;;16.60;10.48;;;4.60;99.90;;;;;;4994930;28;20120;-82
2021/11/22 05:16:36;;;;;;;11.73;9.57;;;4.60;99.90;;;;;;4994434;28;20029;-82
2021/11/22 05:19:01;;;;;;;15.00;10.25;;;4.50;99.90;;;;;;4992383;28;20581;-82
2021/11/22 05:21:29;;;;;;;13.98;9.43;;;4.50;99.90;;;;;;5019538;28;20389;-82
2021/11/22 05:23:55;;;;;;;13.63;10.05;;;4.50;99.90;;;;;;5017564;28;20053;-82
2021/11/22 05:26:21;;;;;;;15.15;10.80;;;4.50;99.90;;;;;;5024055;28;20464;-83
2021/11/22 05:28:46;;;;;;;17.75;10.45;;;4.50;99.90;;;;;;5023321;28;20509;-82
2021/11/22 05:31:12;;;;;;;14.10;9.90;;;4.50;99.90;;;;;;5011536;28;20083;-84
2021/11/22 05:33:37;;;;;;;19.38;11.68;;;4.50;99.90;;;;;;5012702;28;20029;-83
2021/11/22 05:36:03;;;;;;;15.30;10.80;;;4.40;99.90;;;;;;5038222;28;20440;-83
2021/11/22 05:38:29;;;;;;;14.75;11.35;;;4.40;99.90;;;;;;5027384;28;20094;-83
2021/11/22 05:40:54;;;;;;;14.93;13.30;;;4.40;99.90;;;;;;5022634;28;20022;-82
2021/11/22 05:43:22;;;;;;;13.40;10.43;;;4.40;99.90;;;;;;5026232;28;20044;-82
2021/11/22 05:45:47;;;;;;;14.13;10.80;;;4.50;99.90;;;;;;5008352;28;20029;-82
2021/11/22 05:48:13;;;;;;;23.13;14.88;;;4.40;99.90;;;;;;4992381;28;20497;-83
2021/11/22 05:50:38;;;;;;;18.40;14.93;;;4.50;99.90;;;;;;5008922;28;20375;-82
2021/11/22 05:53:08;;;;;;;18.17;12.80;;;4.50;99.90;;;;;;5025787;28;20033;-82
2021/11/22 05:55:35;;;;;;;17.73;13.07;;;4.50;99.90;;;;;;5037657;28;20103;-83
2021/11/22 05:58:02;;;;;;;15.38;12.73;;;4.40;99.90;;;;;;5025213;28;20802;-82
2021/11/22 06:00:28;;;;;;;18.45;13.32;;;4.50;99.90;;;;;;5024656;28;20040;-82
2021/11/22 06:02:53;;;;;;;15.27;12.25;;;4.50;99.90;;;;;;5039400;28;20026;-81
2021/11/22 06:05:19;;;;;;;16.60;12.35;;;4.50;99.90;;;;;;5025783;28;20037;-82
2021/11/22 06:07:44;;;;;;;17.88;13.65;;;4.50;99.90;;;;;;5008783;28;20033;-82
2021/11/22 06:10:10;;;;;;;18.63;13.23;;;4.50;99.90;;;;;;5024408;28;20041;-82
2021/11/22 06:12:36;;;;;;;18.85;14.70;;;4.60;99.90;;;;;;5020984;28;20037;-82
2021/11/22 06:15:02;;;;;;;27.05;16.08;;;4.50;99.90;;;;;;5009959;28;20048;-82
2021/11/22 06:17:27;;;;;;;19.52;14.70;;;4.50;99.90;;;;;;5024354;28;20890;-80
2021/11/22 06:19:54;;;;;;;18.35;14.55;;;4.50;99.90;;;;;;5019652;28;20493;-84
2021/11/22 06:22:20;;;;;;;20.83;16.48;;;4.50;99.90;;;;;;5021033;28;20036;-84
2021/11/22 06:24:45;;;;;;;18.77;14.15;;;4.50;99.90;;;;;;5040745;28;20034;-84
2021/11/22 06:27:11;;;;;;;23.88;15.27;;;4.50;99.90;;;;;;5009870;28;20456;-84
2021/11/22 06:29:38;;;;;;;17.33;13.80;;;4.50;99.90;;;;;;5009319;28;20112;-81
2021/11/22 06:32:10;;;;;;;21.40;15.38;;;4.40;99.90;;;;;;5009150;28;20044;-82
2021/11/22 06:34:36;;;;;;;23.42;15.48;;;4.50;99.90;;;;;;5008264;28;20036;-82
2021/11/22 06:37:02;;;;;;;21.80;15.35;;;4.40;99.90;;;;;;5035360;28;20034;-82
2021/11/22 06:39:28;;;;;;;23.67;15.57;;;4.40;99.90;;;;;;5038456;28;20040;-82
2021/11/22 06:41:53;;;;;;;19.67;15.90;;;4.50;99.90;;;;;;5023397;28;20067;-82
2021/11/22 06:44:21;;;;;;;19.77;14.95;;;4.50;99.90;;;;;;5022101;28;20045;-82
2021/11/22 06:46:48;;;;;;;22.88;15.50;;;4.40;99.90;;;;;;5022004;28;20158;-83
2021/11/22 06:49:14;;;;;;;23.23;17.70;;;4.40;99.90;;;;;;5022996;28;20069;-82
2021/11/22 06:51:40;;;;;;;18.85;14.30;;;4.50;99.90;;;;;;5023011;28;20108;-83
2021/11/22 06:54:05;;;;;;;21.02;16.08;;;4.40;99.90;;;;;;5007991;28;20608;-83
2021/11/22 06:56:31;;;;;;;24.25;16.23;;;4.40;99.90;;;;;;4989718;28;20025;-83
2021/11/22 06:58:57;;;;;;;20.10;16.20;;;4.40;99.90;;;;;;5022807;28;20398;-83
2021/11/22 07:01:22;;;;;;;24.58;16.10;;;4.40;99.90;;;;;;5020158;28;20398;-83
2021/11/22 07:03:48;;;;;;;20.50;15.73;;;4.40;99.90;;;;;;5024333;28;20132;-83
2021/11/22 07:06:13;;;;;;;18.65;14.75;;;4.40;99.90;;;;;;5008883;28;20448;-83
2021/11/22 07:08:39;;;;;;;21.10;17.60;;;4.40;99.90;;;;;;5037609;28;20077;-83
2021/11/22 07:11:04;;;;;;;27.25;17.85;;;4.40;99.90;;;;;;5008713;28;21516;-83
2021/11/22 07:13:32;;;;;;;20.10;17.23;;;4.40;99.90;;;;;;5017534;28;20060;-82
2021/11/22 07:15:58;;;;;;;16.13;13.52;;;4.40;99.90;;;;;;5007565;28;20543;-83
2021/11/22 07:18:23;;;;;;;19.08;14.70;;;4.40;99.90;;;;;;5033058;28;20033;-83
2021/11/22 07:20:49;;;;;;;18.75;15.43;;;4.40;99.90;;;;;;4986066;28;20367;-82
2021/11/22 07:23:15;;;;;;;24.25;15.25;;;4.40;99.90;;;;;;5022602;28;20052;-83
2021/11/22 07:25:41;;;;;;;20.98;13.95;;;4.40;99.90;;;;;;5015604;28;20164;-83
2021/11/22 07:28:07;;;;;;;19.48;15.25;;;4.40;99.90;;;;;;5007648;28;20584;-83
2021/11/22 07:30:32;;;;;;;19.10;14.70;;;4.30;99.90;;;;;;5004379;28;20128;-84
2021/11/22 07:32:58;;;;;;;20.52;14.90;;;4.40;99.90;;;;;;4990810;28;20029;-83
2021/11/22 07:35:24;;;;;;;18.45;14.43;;;4.40;99.90;;;;;;5020633;28;20257;-83
2021/11/22 07:37:50;;;;;;;21.95;15.90;;;4.40;99.90;;;;;;5006200;28;20098;-83
2021/11/22 07:40:16;;;;;;;26.23;16.58;;;4.50;99.90;;;;;;5039665;28;20173;-83
2021/11/22 07:42:42;;;;;;;20.58;15.95;;;4.40;99.90;;;;;;5012782;28;20065;-83
2021/11/22 07:45:08;;;;;;;21.88;15.27;;;4.50;99.90;;;;;;4991382;28;20783;-83
2021/11/22 07:47:33;;;;;;;22.15;15.80;;;4.50;99.90;;;;;;4974598;28;20207;-83
2021/11/22 07:50:00;;;;;;;20.75;15.38;;;4.40;99.90;;;;;;5014450;28;20034;-83
2021/11/22 07:52:25;;;;;;;22.00;14.85;;;4.50;99.90;;;;;;4994343;28;20130;-83
2021/11/22 07:54:51;;;;;;;20.98;16.35;;;4.50;99.90;;;;;;4995641;28;20029;-83
2021/11/22 07:57:17;;;;;;;20.83;15.82;;;4.50;99.90;;;;;;4999541;28;20215;-83
2021/11/22 07:59:42;;;;;;;21.65;15.45;;;4.50;99.90;;;;;;4987441;28;20049;-84
2021/11/22 08:02:09;;;;;;;19.98;16.27;;;4.50;99.90;;;;;;5005555;28;20029;-83
2021/11/22 08:04:34;;;;;;;20.90;14.32;;;4.50;99.90;;;;;;5005942;28;20036;-83
2021/11/22 08:07:02;;;;;;;18.55;13.95;;;4.50;99.90;;;;;;5003246;28;20030;-83
2021/11/22 08:09:30;;;;;;;21.98;14.45;;;4.50;99.90;;;;;;5020431;28;20025;-84
2021/11/22 08:14:34;;;;;;;18.65;13.15;;;4.50;99.90;;;;;;5009336;28;20098;-84
2021/11/22 08:17:00;;;;;;;19.05;14.43;;;4.50;99.90;;;;;;5018356;28;20038;-84
2021/11/22 08:19:26;;;;;;;19.90;15.25;;;4.60;99.90;;;;;;5021786;28;20076;-86
2021/11/22 08:21:51;;;;;;;19.30;15.73;;;4.60;99.90;;;;;;5005689;28;20041;-82
2021/11/22 08:24:17;;;;;;;24.17;15.88;;;4.60;99.90;;;;;;5021179;28;20121;-83
2021/11/22 08:26:43;;;;;;;17.60;14.68;;;4.60;99.90;;;;;;5006903;28;20060;-82
2021/11/22 08:29:08;;;;;;;18.10;14.32;;;4.60;99.90;;;;;;5026065;28;20092;-83
2021/11/22 08:31:34;;;;;;;17.88;15.43;;;4.60;99.90;;;;;;5011286;28;20030;-83
2021/11/22 08:33:59;;;;;;;20.70;16.23;;;4.70;99.90;;;;;;5032629;28;20515;-83
2021/11/22 08:36:25;;;;;;;19.88;13.45;;;4.70;99.90;;;;;;5023424;28;20413;-82
2021/11/22 08:38:52;;;;;;;19.63;14.07;;;4.60;99.90;;;;;;5038812;28;20029;-84
2021/11/22 08:41:17;;;;;;;22.67;15.38;;;4.70;99.90;;;;;;5042978;28;20531;-83
2021/11/22 08:43:43;;;;;;;20.08;14.55;;;4.80;99.90;;;;;;5026071;28;20022;-83
2021/11/22 08:46:08;;;;;;;17.67;14.38;;;4.80;99.90;;;;;;4990896;28;20335;-83
2021/11/22 08:48:34;;;;;;;20.38;15.18;;;4.80;99.90;;;;;;5026592;28;20025;-83
2021/11/22 08:51:02;;;;;;;22.80;16.23;;;4.80;99.90;;;;;;5009856;28;20032;-83
2021/11/22 08:53:28;;;;;;;22.83;17.13;;;4.90;99.90;;;;;;5020790;28;20032;-83
2021/11/22 08:55:53;;;;;;;22.77;17.15;;;4.90;99.90;;;;;;5024077;28;20026;-84
2021/11/22 08:58:19;;;;;;;25.00;17.27;;;4.90;99.90;;;;;;5024497;28;20666;-83
2021/11/22 09:00:44;;;;;;;25.90;17.10;;;4.90;99.90;;;;;;5024064;28;20034;-84
2021/11/22 09:03:10;;;;;;;25.50;17.67;;;4.90;99.90;;;;;;5010729;28;20137;-83
2021/11/22 09:05:35;;;;;;;24.90;17.00;;;5.00;99.90;;;;;;4992171;28;20092;-83
2021/11/22 09:08:01;;;;;;;26.85;18.15;;;5.00;99.90;;;;;;5006987;28;20094;-83
2021/11/22 09:10:27;;;;;;;22.60;16.83;;;5.00;99.90;;;;;;5025840;28;20034;-83
2021/11/22 09:12:52;;;;;;;24.42;17.83;;;5.10;99.90;;;;;;5022923;28;20084;-84
2021/11/22 09:15:18;;;;;;;23.65;17.33;;;5.10;99.90;;;;;;5023785;28;20033;-84
2021/11/22 09:17:44;;;;;;;25.42;16.90;;;5.10;99.90;;;;;;5025043;28;20076;-83
2021/11/22 09:20:10;;;;;;;26.88;17.92;;;5.20;99.90;;;;;;5008921;28;20033;-83
2021/11/22 09:22:37;;;;;;;27.27;18.15;;;5.30;99.90;;;;;;5009899;28;20393;-83
2021/11/22 09:25:04;;;;;;;24.95;18.40;;;5.20;99.90;;;;;;4984301;28;20040;-84
2021/11/22 09:27:30;;;;;;;27.38;18.20;;;5.30;99.90;;;;;;5037520;28;20444;-84
2021/11/22 09:29:56;;;;;;;22.65;16.55;;;5.30;99.90;;;;;;5022150;28;20033;-84
2021/11/22 09:32:21;;;;;;;23.65;17.27;;;5.40;99.90;;;;;;5009879;28;20095;-84
2021/11/22 09:34:49;;;;;;;25.90;17.20;;;5.40;99.90;;;;;;5036482;28;20408;-84
2021/11/22 09:37:14;;;;;;;26.60;17.15;;;5.40;99.90;;;;;;4993250;28;20341;-84
2021/11/22 09:39:40;;;;;;;26.17;17.20;;;5.40;99.90;;;;;;5008843;28;20041;-84
2021/11/22 09:42:05;;;;;;;26.55;19.38;;;5.50;99.90;;;;;;4986816;28;20057;-84
2021/11/22 09:44:31;;;;;;;28.08;20.42;;;5.50;99.90;;;;;;5009007;28;20109;-84
2021/11/22 09:46:57;;;;;;;32.10;18.70;;;5.50;99.90;;;;;;5021751;28;20444;-84
2021/11/22 09:49:22;;;;;;;31.25;19.55;;;5.50;99.90;;;;;;5040214;28;20119;-84
2021/11/22 09:51:48;;;;;;;32.15;18.67;;;5.60;99.90;;;;;;5024447;28;20167;-83
2021/11/22 09:54:14;;;;;;;27.42;17.80;;;5.50;99.90;;;;;;5008684;28;20030;-84
2021/11/22 09:56:39;;;;;;;28.80;18.27;;;5.50;99.90;;;;;;4990350;28;20462;-84
2021/11/22 09:59:05;;;;;;;31.00;18.63;;;5.50;99.90;;;;;;5022495;28;20418;-84
2021/11/22 10:01:33;;;;;;;31.35;19.00;;;5.60;99.90;;;;;;5006682;28;20032;-83
2021/11/22 10:04:05;;;;;;;30.52;20.77;;;5.50;99.90;;;;;;5035719;28;20049;-84
2021/11/22 10:06:57;;;;;;;36.35;19.85;;;5.40;99.90;;;;;;5004223;28;20503;-83
2021/11/22 10:09:32;;;;;;;30.10;18.15;;;5.30;99.90;;;;;;5014555;28;20026;-84
2021/11/22 10:12:04;;;;;;;28.13;18.20;;;5.20;99.90;;;;;;5023623;28;20237;-84
2021/11/22 10:14:35;;;;;;;25.85;17.45;;;5.10;99.90;;;;;;5024026;28;20061;-84
2021/11/22 10:17:01;;;;;;;29.15;18.00;;;5.00;99.90;;;;;;5037784;28;20060;-84
2021/11/22 10:19:26;;;;;;;30.13;19.90;;;5.00;99.90;;;;;;5018988;28;20029;-84
2021/11/22 10:21:52;;;;;;;25.00;17.60;;;5.00;99.90;;;;;;5036975;28;20052;-84
2021/11/22 10:24:17;;;;;;;26.30;17.50;;;5.00;99.90;;;;;;5005355;28;22667;-84
2021/11/22 10:26:48;;;;;;;25.92;17.55;;;4.90;99.90;;;;;;5023056;28;20363;-84
2021/11/22 10:29:27;;;;;;;25.17;18.17;;;4.80;99.90;;;;;;5006475;28;20053;-83
2021/11/22 10:31:54;;;;;;;23.73;15.35;;;4.80;99.90;;;;;;5014695;28;20113;-83
2021/11/22 10:34:19;;;;;;;26.08;15.13;;;4.80;99.90;;;;;;5016428;28;20057;-83
2021/11/22 10:36:45;;;;;;;25.00;16.95;;;4.70;99.90;;;;;;5003690;28;20168;-83
2021/11/22 10:39:11;;;;;;;24.35;15.82;;;4.70;99.90;;;;;;5014305;28;20422;-84
2021/11/22 10:41:39;;;;;;;23.70;15.18;;;4.60;99.90;;;;;;5001634;28;20029;-83
2021/11/22 10:44:09;;;;;;;28.38;17.00;;;4.60;99.90;;;;;;5005228;28;20420;-83
2021/11/22 10:46:42;;;;;;;24.90;15.43;;;4.60;99.90;;;;;;5007133;28;20486;-83
2021/11/22 10:49:13;;;;;;;23.15;15.18;;;4.50;99.90;;;;;;5025147;28;20039;-83
2021/11/22 10:51:43;;;;;;;24.40;16.75;;;4.50;99.90;;;;;;5005923;28;20069;-83
2021/11/22 10:54:12;;;;;;;25.23;17.30;;;4.50;99.90;;;;;;5025192;28;20080;-83
2021/11/22 10:56:39;;;;;;;20.77;15.50;;;4.60;99.90;;;;;;4990751;28;20038;-83
2021/11/22 10:59:13;;;;;;;23.58;14.80;;;4.70;99.90;;;;;;5008050;28;20038;-83
2021/11/22 11:01:48;;;;;;;20.27;15.18;;;4.70;99.90;;;;;;5008166;28;20071;-83
2021/11/22 11:04:34;;;;;;;23.95;14.73;;;4.60;99.90;;;;;;5009317;28;20025;-83
2021/11/22 11:07:05;;;;;;;21.40;14.65;;;4.70;99.90;;;;;;5005872;28;20091;-84
2021/11/22 11:09:38;;;;;;;17.95;14.07;;;4.60;99.90;;;;;;5012392;28;20080;-83
2021/11/22 11:12:18;;;;;;;19.42;13.38;;;4.50;99.90;;;;;;4990552;28;20033;-83
2021/11/22 11:14:49;;;;;;;17.55;12.45;;;4.50;99.90;;;;;;5017656;28;20022;-83
2021/11/22 11:17:18;;;;;;;18.67;11.88;;;4.80;99.90;;;;;;5005287;28;20066;-83
2021/11/22 11:19:45;;;;;;;14.98;9.80;;;4.80;99.90;;;;;;4988738;28;20037;-83
2021/11/22 11:22:12;;;;;;;13.02;9.18;;;4.80;99.90;;;;;;5037727;28;20029;-84
2021/11/22 11:24:38;;;;;;;16.15;11.32;;;4.60;99.90;;;;;;5006506;28;20147;-83
2021/11/22 11:27:04;;;;;;;14.60;9.35;;;4.60;99.90;;;;;;5000928;28;20024;-83
2021/11/22 11:29:30;;;;;;;16.48;10.18;;;4.70;99.90;;;;;;5002555;28;20461;-83
2021/11/22 11:31:58;;;;;;;15.85;10.48;;;5.20;99.90;;;;;;4989660;28;20413;-83
2021/11/22 11:34:29;;;;;;;13.63;8.90;;;5.50;99.90;;;;;;4977829;28;20396;-83
2021/11/22 11:37:15;;;;;;;10.43;7.65;;;5.10;99.90;;;;;;5007063;28;20363;-83
2021/11/22 11:40:02;;;;;;;13.70;6.50;;;5.20;99.90;;;;;;5027496;28;20033;-85
2021/11/22 11:42:51;;;;;;;9.18;6.15;;;5.30;99.90;;;;;;5017326;28;20517;-83
2021/11/22 11:45:39;;;;;;;8.57;5.10;;;5.60;99.90;;;;;;4994468;28;20514;-83
2021/11/22 11:48:26;;;;;;;8.82;4.32;;;5.10;99.90;;;;;;5008003;28;20278;-83
2021/11/22 11:50:51;;;;;;;6.68;4.47;;;5.20;99.90;;;;;;5020063;28;20030;-83
2021/11/22 11:53:18;;;;;;;6.72;3.67;;;5.10;99.90;;;;;;4990046;28;20439;-83
2021/11/22 11:56:05;;;;;;;6.15;3.40;;;5.00;99.90;;;;;;5006663;28;20037;-83
2021/11/22 11:58:30;;;;;;;7.00;4.40;;;5.10;99.90;;;;;;5020988;28;20038;-83
2021/11/22 12:01:05;;;;;;;6.97;4.50;;;5.10;99.90;;;;;;5007992;28;20444;-83
2021/11/22 12:03:51;;;;;;;6.28;4.13;;;5.00;99.90;;;;;;5033023;28;20038;-83
2021/11/22 12:06:49;;;;;;;6.03;3.97;;;5.10;99.90;;;;;;4331212;28;10000093;-83
2021/11/22 12:09:38;;;;;;;3.90;2.97;;;5.50;99.90;;;;;;5020790;28;20169;-83
2021/11/22 12:12:13;;;;;;;4.38;3.25;;;5.60;99.90;;;;;;4991586;28;20485;-83
2021/11/22 12:14:52;;;;;;;6.93;2.67;;;6.00;99.90;;;;;;5025211;28;20029;-83
2021/11/22 12:17:35;;;;;;;7.63;2.83;;;5.50;99.90;;;;;;5024140;28;20041;-83
2021/11/22 12:20:05;;;;;;;5.30;2.35;;;5.40;99.90;;;;;;5025641;28;20513;-83
2021/11/22 12:22:41;;;;;;;4.47;2.22;;;5.30;99.90;;;;;;4987021;28;20034;-83
2021/11/22 12:25:07;;;;;;;3.17;2.88;;;5.40;99.90;;;;;;5014687;28;20065;-83
2021/11/22 12:27:37;;;;;;;3.40;2.70;;;5.70;99.90;;;;;;5009293;28;20049;-83
2021/11/22 12:30:27;;;;;;;9.68;2.85;;;5.70;99.90;;;;;;4994310;28;20049;-83
2021/11/22 12:32:53;;;;;;;4.03;2.80;;;6.10;99.90;;;;;;5025599;28;20034;-83
2021/11/22 12:35:34;;;;;;;5.45;3.15;;;6.40;99.90;;;;;;5010085;28;20044;-83
2021/11/22 12:38:25;;;;;;;3.30;2.50;;;5.70;99.90;;;;;;5007414;28;20099;-83
2021/11/22 12:40:55;;;;;;;6.63;2.67;;;5.60;99.90;;;;;;5023683;28;20038;-84
2021/11/22 12:43:38;;;;;;;3.25;1.88;;;5.80;99.90;;;;;;5010809;28;20037;-83
2021/11/22 12:46:06;;;;;;;2.42;1.88;;;5.80;99.90;;;;;;5024686;28;20033;-83